sensor_id;sensor_type;location;lat;lon;timestamp;temperature;humidity
23748;DHT22;12054;53.662;10.126;2022-11-20T00:02:18;3.10;99.90
23748;DHT22;12054;53.662;10.126;2022-11-20T00:04:43;3.10;99.90
23748;DHT22;12054;53.662;10.126;2022-11-20T00:07:09;3.10;99.90
23748;DHT22;12054;53.662;10.126;2022-11-20T00:09:34;3.10;99.90
23748;DHT22;12054;53.662;10.126;2022-11-20T00:12:00;3.10;99.90
23748;DHT22;12054;53.662;10.126;2022-11-20T00:14:25;3.10;99.90
23748;DHT22;12054;53.662;10.126;2022-11-20T00:16:50;3.10;99.90
23748;DHT22;12054;53.662;10.126;2022-11-20T00:19:16;3.10;99.90
23748;DHT22;12054;53.662;10.126;2022-11-20T00:21:41;3.10;99.90
23748;DHT22;12054;53.662;10.126;2022-11-20T00:24:10;3.20;99.90
23748;DHT22;12054;53.662;10.126;2022-11-20T00:26:36;3.10;99.90
23748;DHT22;12054;53.662;10.126;2022-11-20T00:29:02;3.10;99.90
23748;DHT22;12054;53.662;10.126;2022-11-20T00:31:29;3.10;99.90
23748;DHT22;12054;53.662;10.126;2022-11-20T00:33:54;3.10;99.90
23748;DHT22;12054;53.662;10.126;2022-11-20T00:36:28;3.10;99.90
23748;DHT22;12054;53.662;10.126;2022-11-20T00:38:56;3.10;99.90
23748;DHT22;12054;53.662;10.126;2022-11-20T00:41:22;3.10;99.90
23748;DHT22;12054;53.662;10.126;2022-11-20T00:43:48;3.10;99.90
23748;DHT22;12054;53.662;10.126;2022-11-20T00:46:16;3.10;99.90
23748;DHT22;12054;53.662;10.126;2022-11-20T00:48:43;3.10;99.90
23748;DHT22;12054;53.662;10.126;2022-11-20T00:51:08;3.10;99.90
23748;DHT22;12054;53.662;10.126;2022-11-20T00:53:34;3.10;99.90
23748;DHT22;12054;53.662;10.126;2022-11-20T00:56:02;3.10;99.90
23748;DHT22;12054;53.662;10.126;2022-11-20T00:58:36;3.10;99.90
23748;DHT22;12054;53.662;10.126;2022-11-20T01:01:10;3.10;99.90
23748;DHT22;12054;53.662;10.126;2022-11-20T01:03:39;3.10;99.90
23748;DHT22;12054;53.662;10.126;2022-11-20T01:06:27;3.10;99.90
23748;DHT22;12054;53.662;10.126;2022-11-20T01:08:55;3.10;99.90
23748;DHT22;12054;53.662;10.126;2022-11-20T01:11:23;3.10;99.90
23748;DHT22;12054;53.662;10.126;2022-11-20T01:13:51;3.10;99.90
23748;DHT22;12054;53.662;10.126;2022-11-20T01:16:19;3.10;99.90
23748;DHT22;12054;53.662;10.126;2022-11-20T01:18:47;3.10;99.90
23748;DHT22;12054;53.662;10.126;2022-11-20T01:21:16;3.10;99.90
23748;DHT22;12054;53.662;10.126;2022-11-20T01:23:44;3.10;99.90
23748;DHT22;12054;53.662;10.126;2022-11-20T01:26:15;3.10;99.90
23748;DHT22;12054;53.662;10.126;2022-11-20T01:28:41;3.10;99.90
23748;DHT22;12054;53.662;10.126;2022-11-20T01:31:16;3.10;99.90
23748;DHT22;12054;53.662;10.126;2022-11-20T01:33:43;3.10;99.90
23748;DHT22;12054;53.662;10.126;2022-11-20T01:36:10;3.10;99.90
23748;DHT22;12054;53.662;10.126;2022-11-20T01:38:36;3.10;99.90
23748;DHT22;12054;53.662;10.126;2022-11-20T01:41:02;3.10;99.90
23748;DHT22;12054;53.662;10.126;2022-11-20T01:43:27;3.10;99.90
23748;DHT22;12054;53.662;10.126;2022-11-20T01:46:18;3.10;99.90
23748;DHT22;12054;53.662;10.126;2022-11-20T01:49:01;3.10;99.90
23748;DHT22;12054;53.662;10.126;2022-11-20T01:51:44;3.10;99.90
23748;DHT22;12054;53.662;10.126;2022-11-20T01:54:15;3.10;99.90
23748;DHT22;12054;53.662;10.126;2022-11-20T01:56:44;3.10;99.90
23748;DHT22;12054;53.662;10.126;2022-11-20T01:59:13;3.10;99.90
23748;DHT22;12054;53.662;10.126;2022-11-20T02:01:39;3.10;99.90
23748;DHT22;12054;53.662;10.126;2022-11-20T02:04:06;3.10;99.90
23748;DHT22;12054;53.662;10.126;2022-11-20T02:06:36;3.00;99.90
23748;DHT22;12054;53.662;10.126;2022-11-20T02:09:03;3.10;99.90
23748;DHT22;12054;53.662;10.126;2022-11-20T02:11:30;3.10;99.90
23748;DHT22;12054;53.662;10.126;2022-11-20T02:13:56;3.10;99.90
23748;DHT22;12054;53.662;10.126;2022-11-20T02:16:25;3.10;99.90
23748;DHT22;12054;53.662;10.126;2022-11-20T02:18:52;3.10;99.90
23748;DHT22;12054;53.662;10.126;2022-11-20T02:26:22;3.10;99.90
23748;DHT22;12054;53.662;10.126;2022-11-20T02:28:48;3.00;99.90
23748;DHT22;12054;53.662;10.126;2022-11-20T02:31:14;3.10;99.90
23748;DHT22;12054;53.662;10.126;2022-11-20T02:33:39;3.10;99.90
23748;DHT22;12054;53.662;10.126;2022-11-20T02:36:07;3.10;99.90
23748;DHT22;12054;53.662;10.126;2022-11-20T02:38:33;3.10;99.90
23748;DHT22;12054;53.662;10.126;2022-11-20T02:40:58;3.10;99.90
23748;DHT22;12054;53.662;10.126;2022-11-20T02:43:24;3.10;99.90
23748;DHT22;12054;53.662;10.126;2022-11-20T02:45:49;3.10;99.90
23748;DHT22;12054;53.662;10.126;2022-11-20T02:48:15;3.10;99.90
23748;DHT22;12054;53.662;10.126;2022-11-20T02:50:40;3.10;99.90
23748;DHT22;12054;53.662;10.126;2022-11-20T02:53:06;3.10;99.90
23748;DHT22;12054;53.662;10.126;2022-11-20T02:55:32;3.10;99.90
23748;DHT22;12054;53.662;10.126;2022-11-20T02:57:58;3.10;99.90
23748;DHT22;12054;53.662;10.126;2022-11-20T03:00:23;3.10;99.90
23748;DHT22;12054;53.662;10.126;2022-11-20T03:02:49;3.00;99.90
23748;DHT22;12054;53.662;10.126;2022-11-20T03:05:15;3.00;99.90
23748;DHT22;12054;53.662;10.126;2022-11-20T03:07:40;3.10;99.90
23748;DHT22;12054;53.662;10.126;2022-11-20T03:10:06;3.00;99.90
23748;DHT22;12054;53.662;10.126;2022-11-20T03:12:32;3.10;99.90
23748;DHT22;12054;53.662;10.126;2022-11-20T03:14:57;3.00;99.90
23748;DHT22;12054;53.662;10.126;2022-11-20T03:17:23;3.10;99.90
23748;DHT22;12054;53.662;10.126;2022-11-20T03:19:48;3.10;99.90
23748;DHT22;12054;53.662;10.126;2022-11-20T03:22:14;3.10;99.90
23748;DHT22;12054;53.662;10.126;2022-11-20T03:24:39;3.10;99.90
23748;DHT22;12054;53.662;10.126;2022-11-20T03:27:05;3.00;99.90
23748;DHT22;12054;53.662;10.126;2022-11-20T03:29:30;3.00;99.90
23748;DHT22;12054;53.662;10.126;2022-11-20T03:31:56;3.10;99.90
23748;DHT22;12054;53.662;10.126;2022-11-20T03:34:21;3.00;99.90
23748;DHT22;12054;53.662;10.126;2022-11-20T03:36:46;3.00;99.90
23748;DHT22;12054;53.662;10.126;2022-11-20T03:39:12;3.00;99.90
23748;DHT22;12054;53.662;10.126;2022-11-20T03:41:39;3.00;99.90
23748;DHT22;12054;53.662;10.126;2022-11-20T03:44:07;3.00;99.90
23748;DHT22;12054;53.662;10.126;2022-11-20T03:46:33;3.00;99.90
23748;DHT22;12054;53.662;10.126;2022-11-20T03:48:59;3.00;99.90
23748;DHT22;12054;53.662;10.126;2022-11-20T03:51:27;3.00;99.90
23748;DHT22;12054;53.662;10.126;2022-11-20T03:53:55;3.00;99.90
23748;DHT22;12054;53.662;10.126;2022-11-20T03:56:24;3.00;99.90
23748;DHT22;12054;53.662;10.126;2022-11-20T03:58:50;3.00;99.90
23748;DHT22;12054;53.662;10.126;2022-11-20T04:01:18;3.00;99.90
23748;DHT22;12054;53.662;10.126;2022-11-20T04:03:45;3.00;99.90
23748;DHT22;12054;53.662;10.126;2022-11-20T04:06:17;3.00;99.90
23748;DHT22;12054;53.662;10.126;2022-11-20T04:08:43;3.00;99.90
23748;DHT22;12054;53.662;10.126;2022-11-20T04:11:29;3.00;99.90
23748;DHT22;12054;53.662;10.126;2022-11-20T04:13:59;3.00;99.90
23748;DHT22;12054;53.662;10.126;2022-11-20T04:16:28;3.00;99.90
23748;DHT22;12054;53.662;10.126;2022-11-20T04:18:56;3.00;99.90
23748;DHT22;12054;53.662;10.126;2022-11-20T04:21:22;3.00;99.90
23748;DHT22;12054;53.662;10.126;2022-11-20T04:23:48;3.00;99.90
23748;DHT22;12054;53.662;10.126;2022-11-20T04:26:14;3.00;99.90
23748;DHT22;12054;53.662;10.126;2022-11-20T04:28:40;3.00;99.90
23748;DHT22;12054;53.662;10.126;2022-11-20T04:31:11;3.10;99.90
23748;DHT22;12054;53.662;10.126;2022-11-20T04:33:38;3.00;99.90
23748;DHT22;12054;53.662;10.126;2022-11-20T04:36:06;3.00;99.90
23748;DHT22;12054;53.662;10.126;2022-11-20T04:38:32;3.00;99.90
23748;DHT22;12054;53.662;10.126;2022-11-20T04:41:02;3.00;99.90
23748;DHT22;12054;53.662;10.126;2022-11-20T04:43:29;3.00;99.90
23748;DHT22;12054;53.662;10.126;2022-11-20T04:45:55;3.00;99.90
23748;DHT22;12054;53.662;10.126;2022-11-20T04:48:22;3.00;99.90
23748;DHT22;12054;53.662;10.126;2022-11-20T04:50:47;3.00;99.90
23748;DHT22;12054;53.662;10.126;2022-11-20T04:53:13;3.00;99.90
23748;DHT22;12054;53.662;10.126;2022-11-20T04:55:39;3.00;99.90
23748;DHT22;12054;53.662;10.126;2022-11-20T04:58:04;3.00;99.90
23748;DHT22;12054;53.662;10.126;2022-11-20T05:00:30;3.00;99.90
23748;DHT22;12054;53.662;10.126;2022-11-20T05:02:55;3.00;99.90
23748;DHT22;12054;53.662;10.126;2022-11-20T05:05:21;3.00;99.90
23748;DHT22;12054;53.662;10.126;2022-11-20T05:07:46;3.00;99.90
23748;DHT22;12054;53.662;10.126;2022-11-20T05:10:12;3.00;99.90
23748;DHT22;12054;53.662;10.126;2022-11-20T05:12:37;3.00;99.90
23748;DHT22;12054;53.662;10.126;2022-11-20T05:15:03;3.00;99.90
23748;DHT22;12054;53.662;10.126;2022-11-20T05:17:29;3.00;99.90
23748;DHT22;12054;53.662;10.126;2022-11-20T05:19:54;3.00;99.90
23748;DHT22;12054;53.662;10.126;2022-11-20T05:22:20;3.00;99.90
23748;DHT22;12054;53.662;10.126;2022-11-20T05:24:45;3.00;99.90
23748;DHT22;12054;53.662;10.126;2022-11-20T05:27:11;3.00;99.90
23748;DHT22;12054;53.662;10.126;2022-11-20T05:29:36;3.00;99.90
23748;DHT22;12054;53.662;10.126;2022-11-20T05:32:02;3.00;99.90
23748;DHT22;12054;53.662;10.126;2022-11-20T05:34:28;3.00;99.90
23748;DHT22;12054;53.662;10.126;2022-11-20T05:36:53;3.00;99.90
23748;DHT22;12054;53.662;10.126;2022-11-20T05:39:19;3.00;99.90
23748;DHT22;12054;53.662;10.126;2022-11-20T05:41:44;3.00;99.90
23748;DHT22;12054;53.662;10.126;2022-11-20T05:44:10;3.00;99.90
23748;DHT22;12054;53.662;10.126;2022-11-20T05:46:36;3.00;99.90
23748;DHT22;12054;53.662;10.126;2022-11-20T05:49:02;3.00;99.90
23748;DHT22;12054;53.662;10.126;2022-11-20T05:51:27;2.90;99.90
23748;DHT22;12054;53.662;10.126;2022-11-20T05:53:53;2.90;99.90
23748;DHT22;12054;53.662;10.126;2022-11-20T05:56:20;2.90;99.90
23748;DHT22;12054;53.662;10.126;2022-11-20T05:58:47;2.90;99.90
23748;DHT22;12054;53.662;10.126;2022-11-20T06:01:15;2.90;99.90
23748;DHT22;12054;53.662;10.126;2022-11-20T06:03:41;2.90;99.90
23748;DHT22;12054;53.662;10.126;2022-11-20T06:06:15;2.90;99.90
23748;DHT22;12054;53.662;10.126;2022-11-20T06:08:41;2.90;99.90
23748;DHT22;12054;53.662;10.126;2022-11-20T06:11:09;2.90;99.90
23748;DHT22;12054;53.662;10.126;2022-11-20T06:13:35;2.90;99.90
23748;DHT22;12054;53.662;10.126;2022-11-20T06:16:01;2.90;99.90
23748;DHT22;12054;53.662;10.126;2022-11-20T06:18:28;2.90;99.90
23748;DHT22;12054;53.662;10.126;2022-11-20T06:21:07;2.90;99.90
23748;DHT22;12054;53.662;10.126;2022-11-20T06:23:35;2.90;99.90
23748;DHT22;12054;53.662;10.126;2022-11-20T06:26:09;2.90;99.90
23748;DHT22;12054;53.662;10.126;2022-11-20T06:28:35;2.90;99.90
23748;DHT22;12054;53.662;10.126;2022-11-20T06:31:01;2.90;99.90
23748;DHT22;12054;53.662;10.126;2022-11-20T06:33:26;2.90;99.90
23748;DHT22;12054;53.662;10.126;2022-11-20T06:35:55;2.90;99.90
23748;DHT22;12054;53.662;10.126;2022-11-20T06:38:21;2.90;99.90
23748;DHT22;12054;53.662;10.126;2022-11-20T06:40:46;2.90;99.90
23748;DHT22;12054;53.662;10.126;2022-11-20T06:43:12;2.90;99.90
23748;DHT22;12054;53.662;10.126;2022-11-20T06:45:37;2.90;99.90
23748;DHT22;12054;53.662;10.126;2022-11-20T06:48:03;2.90;99.90
23748;DHT22;12054;53.662;10.126;2022-11-20T06:50:29;2.90;99.90
23748;DHT22;12054;53.662;10.126;2022-11-20T06:52:55;2.90;99.90
23748;DHT22;12054;53.662;10.126;2022-11-20T06:55:20;2.90;99.90
23748;DHT22;12054;53.662;10.126;2022-11-20T06:57:46;2.90;99.90
23748;DHT22;12054;53.662;10.126;2022-11-20T07:00:13;2.90;99.90
23748;DHT22;12054;53.662;10.126;2022-11-20T07:02:39;2.90;99.90
23748;DHT22;12054;53.662;10.126;2022-11-20T07:05:04;2.90;99.90
23748;DHT22;12054;53.662;10.126;2022-11-20T07:07:30;2.90;99.90
23748;DHT22;12054;53.662;10.126;2022-11-20T07:09:55;2.90;99.90
23748;DHT22;12054;53.662;10.126;2022-11-20T07:12:21;2.90;99.90
23748;DHT22;12054;53.662;10.126;2022-11-20T07:14:46;2.90;99.90
23748;DHT22;12054;53.662;10.126;2022-11-20T07:17:12;2.90;99.90
23748;DHT22;12054;53.662;10.126;2022-11-20T07:19:37;2.80;99.90
23748;DHT22;12054;53.662;10.126;2022-11-20T07:22:03;2.80;99.90
23748;DHT22;12054;53.662;10.126;2022-11-20T07:24:28;2.90;99.90
23748;DHT22;12054;53.662;10.126;2022-11-20T07:26:54;2.90;99.90
23748;DHT22;12054;53.662;10.126;2022-11-20T07:29:19;2.80;99.90
23748;DHT22;12054;53.662;10.126;2022-11-20T07:31:45;2.80;99.90
23748;DHT22;12054;53.662;10.126;2022-11-20T07:34:10;2.80;99.90
23748;DHT22;12054;53.662;10.126;2022-11-20T07:36:36;2.80;99.90
23748;DHT22;12054;53.662;10.126;2022-11-20T07:39:01;2.90;99.90
23748;DHT22;12054;53.662;10.126;2022-11-20T07:41:27;2.80;99.90
23748;DHT22;12054;53.662;10.126;2022-11-20T07:43:53;2.90;99.90
23748;DHT22;12054;53.662;10.126;2022-11-20T07:46:18;2.80;99.90
23748;DHT22;12054;53.662;10.126;2022-11-20T07:48:44;2.80;99.90
23748;DHT22;12054;53.662;10.126;2022-11-20T07:51:09;2.80;99.90
23748;DHT22;12054;53.662;10.126;2022-11-20T07:53:35;2.80;99.90
23748;DHT22;12054;53.662;10.126;2022-11-20T07:56:01;2.80;99.90
23748;DHT22;12054;53.662;10.126;2022-11-20T07:58:29;2.80;99.90
23748;DHT22;12054;53.662;10.126;2022-11-20T08:00:55;2.80;99.90
23748;DHT22;12054;53.662;10.126;2022-11-20T08:03:21;2.90;99.90
23748;DHT22;12054;53.662;10.126;2022-11-20T08:05:46;2.90;99.90
23748;DHT22;12054;53.662;10.126;2022-11-20T08:08:12;2.80;99.90
23748;DHT22;12054;53.662;10.126;2022-11-20T08:10:37;2.90;99.90
23748;DHT22;12054;53.662;10.126;2022-11-20T08:13:03;2.90;99.90
23748;DHT22;12054;53.662;10.126;2022-11-20T08:15:49;2.90;99.90
23748;DHT22;12054;53.662;10.126;2022-11-20T08:18:16;2.90;99.90
23748;DHT22;12054;53.662;10.126;2022-11-20T08:20:42;2.90;99.90
23748;DHT22;12054;53.662;10.126;2022-11-20T08:23:08;2.90;99.90
23748;DHT22;12054;53.662;10.126;2022-11-20T08:25:35;2.90;99.90
23748;DHT22;12054;53.662;10.126;2022-11-20T08:28:03;2.90;99.90
23748;DHT22;12054;53.662;10.126;2022-11-20T08:30:30;2.90;99.90
23748;DHT22;12054;53.662;10.126;2022-11-20T08:33:04;2.90;99.90
23748;DHT22;12054;53.662;10.126;2022-11-20T08:35:34;2.90;99.90
23748;DHT22;12054;53.662;10.126;2022-11-20T08:38:01;2.90;99.90
23748;DHT22;12054;53.662;10.126;2022-11-20T08:40:26;2.90;99.90
23748;DHT22;12054;53.662;10.126;2022-11-20T08:42:52;2.90;99.90
23748;DHT22;12054;53.662;10.126;2022-11-20T08:45:18;2.90;99.90
23748;DHT22;12054;53.662;10.126;2022-11-20T08:47:44;2.90;99.90
23748;DHT22;12054;53.662;10.126;2022-11-20T08:50:14;2.90;99.90
23748;DHT22;12054;53.662;10.126;2022-11-20T08:52:40;3.00;99.90
23748;DHT22;12054;53.662;10.126;2022-11-20T08:55:06;3.00;99.90
23748;DHT22;12054;53.662;10.126;2022-11-20T08:57:36;3.00;99.90
23748;DHT22;12054;53.662;10.126;2022-11-20T09:00:04;2.90;99.90
23748;DHT22;12054;53.662;10.126;2022-11-20T09:02:30;2.90;99.90
23748;DHT22;12054;53.662;10.126;2022-11-20T09:04:55;2.90;99.90
23748;DHT22;12054;53.662;10.126;2022-11-20T09:07:21;3.00;99.90
23748;DHT22;12054;53.662;10.126;2022-11-20T09:09:46;3.00;99.90
23748;DHT22;12054;53.662;10.126;2022-11-20T09:12:13;2.90;99.90
23748;DHT22;12054;53.662;10.126;2022-11-20T09:14:39;3.00;99.90
23748;DHT22;12054;53.662;10.126;2022-11-20T09:17:04;2.90;99.90
23748;DHT22;12054;53.662;10.126;2022-11-20T09:19:29;3.00;99.90
23748;DHT22;12054;53.662;10.126;2022-11-20T09:21:55;3.00;99.90
23748;DHT22;12054;53.662;10.126;2022-11-20T09:24:20;3.00;99.90
23748;DHT22;12054;53.662;10.126;2022-11-20T09:26:46;3.00;99.90
23748;DHT22;12054;53.662;10.126;2022-11-20T09:29:12;3.10;99.90
23748;DHT22;12054;53.662;10.126;2022-11-20T09:31:37;3.10;99.90
23748;DHT22;12054;53.662;10.126;2022-11-20T09:34:03;3.10;99.90
23748;DHT22;12054;53.662;10.126;2022-11-20T09:36:28;3.10;99.90
23748;DHT22;12054;53.662;10.126;2022-11-20T09:38:54;3.10;99.90
23748;DHT22;12054;53.662;10.126;2022-11-20T09:41:47;3.10;99.90
23748;DHT22;12054;53.662;10.126;2022-11-20T09:49:53;3.10;99.90
23748;DHT22;12054;53.662;10.126;2022-11-20T09:52:47;3.10;99.90
23748;DHT22;12054;53.662;10.126;2022-11-20T09:55:17;3.10;99.90
23748;DHT22;12054;53.662;10.126;2022-11-20T09:57:45;3.10;99.90
23748;DHT22;12054;53.662;10.126;2022-11-20T10:00:13;3.10;99.90
23748;DHT22;12054;53.662;10.126;2022-11-20T10:02:59;3.10;99.90
23748;DHT22;12054;53.662;10.126;2022-11-20T10:05:33;3.10;99.90
23748;DHT22;12054;53.662;10.126;2022-11-20T10:08:17;3.10;99.90
23748;DHT22;12054;53.662;10.126;2022-11-20T10:10:49;3.20;99.90
23748;DHT22;12054;53.662;10.126;2022-11-20T10:13:48;3.20;99.90
23748;DHT22;12054;53.662;10.126;2022-11-20T10:19:21;3.20;99.90
23748;DHT22;12054;53.662;10.126;2022-11-20T10:22:10;3.20;99.90
23748;DHT22;12054;53.662;10.126;2022-11-20T10:24:56;3.20;99.90
23748;DHT22;12054;53.662;10.126;2022-11-20T10:27:36;3.20;99.90
23748;DHT22;12054;53.662;10.126;2022-11-20T10:30:11;3.20;99.90
23748;DHT22;12054;53.662;10.126;2022-11-20T10:32:47;3.20;99.90
23748;DHT22;12054;53.662;10.126;2022-11-20T10:35:34;3.20;99.90
23748;DHT22;12054;53.662;10.126;2022-11-20T10:38:05;3.30;99.90
23748;DHT22;12054;53.662;10.126;2022-11-20T10:40:37;3.30;99.90
23748;DHT22;12054;53.662;10.126;2022-11-20T10:43:12;3.30;99.90
23748;DHT22;12054;53.662;10.126;2022-11-20T10:45:50;3.30;99.90
23748;DHT22;12054;53.662;10.126;2022-11-20T10:48:23;3.30;99.90
23748;DHT22;12054;53.662;10.126;2022-11-20T10:51:15;3.30;99.90
23748;DHT22;12054;53.662;10.126;2022-11-20T10:56:47;3.40;99.90
23748;DHT22;12054;53.662;10.126;2022-11-20T11:02:01;3.40;99.90
23748;DHT22;12054;53.662;10.126;2022-11-20T11:04:35;3.40;99.90
23748;DHT22;12054;53.662;10.126;2022-11-20T11:09:52;3.40;99.90
23748;DHT22;12054;53.662;10.126;2022-11-20T11:12:19;3.50;99.90
23748;DHT22;12054;53.662;10.126;2022-11-20T11:14:52;3.50;99.90
23748;DHT22;12054;53.662;10.126;2022-11-20T11:17:30;3.50;99.90
23748;DHT22;12054;53.662;10.126;2022-11-20T11:20:05;3.50;99.90
23748;DHT22;12054;53.662;10.126;2022-11-20T11:22:39;3.50;99.90
23748;DHT22;12054;53.662;10.126;2022-11-20T11:25:35;3.50;99.90
23748;DHT22;12054;53.662;10.126;2022-11-20T11:28:04;3.50;99.90
23748;DHT22;12054;53.662;10.126;2022-11-20T11:30:40;3.50;99.90
23748;DHT22;12054;53.662;10.126;2022-11-20T11:33:10;3.50;99.90
23748;DHT22;12054;53.662;10.126;2022-11-20T11:35:47;3.50;99.90
23748;DHT22;12054;53.662;10.126;2022-11-20T11:38:21;3.50;99.90
23748;DHT22;12054;53.662;10.126;2022-11-20T11:40:48;3.50;99.90
23748;DHT22;12054;53.662;10.126;2022-11-20T11:43:26;3.50;99.90
23748;DHT22;12054;53.662;10.126;2022-11-20T11:54:25;3.60;99.90
23748;DHT22;12054;53.662;10.126;2022-11-20T11:56:51;3.60;99.90
23748;DHT22;12054;53.662;10.126;2022-11-20T11:59:43;3.70;99.90
23748;DHT22;12054;53.662;10.126;2022-11-20T12:02:35;3.70;99.90
23748;DHT22;12054;53.662;10.126;2022-11-20T12:05:26;3.70;99.90
23748;DHT22;12054;53.662;10.126;2022-11-20T12:08:05;3.80;99.90
23748;DHT22;12054;53.662;10.126;2022-11-20T12:10:55;3.70;99.90
23748;DHT22;12054;53.662;10.126;2022-11-20T12:16:00;3.70;99.90
23748;DHT22;12054;53.662;10.126;2022-11-20T12:18:26;3.70;99.90
23748;DHT22;12054;53.662;10.126;2022-11-20T12:23:45;3.70;99.90
23748;DHT22;12054;53.662;10.126;2022-11-20T12:29:02;3.70;99.90
23748;DHT22;12054;53.662;10.126;2022-11-20T12:34:17;3.70;99.90
23748;DHT22;12054;53.662;10.126;2022-11-20T12:37:08;3.70;99.90
23748;DHT22;12054;53.662;10.126;2022-11-20T12:39:42;3.70;99.90
23748;DHT22;12054;53.662;10.126;2022-11-20T12:42:18;3.80;99.90
23748;DHT22;12054;53.662;10.126;2022-11-20T12:54:24;3.80;99.90
23748;DHT22;12054;53.662;10.126;2022-11-20T13:00:30;3.90;99.90
23748;DHT22;12054;53.662;10.126;2022-11-20T13:05:43;3.90;99.90
23748;DHT22;12054;53.662;10.126;2022-11-20T13:08:34;3.90;99.90
23748;DHT22;12054;53.662;10.126;2022-11-20T13:19:30;3.90;99.90
23748;DHT22;12054;53.662;10.126;2022-11-20T13:21:59;3.90;99.90
23748;DHT22;12054;53.662;10.126;2022-11-20T13:24:27;3.90;99.90
23748;DHT22;12054;53.662;10.126;2022-11-20T13:29:45;3.90;99.90
23748;DHT22;12054;53.662;10.126;2022-11-20T13:32:20;3.90;99.90
23748;DHT22;12054;53.662;10.126;2022-11-20T13:34:55;3.90;99.90
23748;DHT22;12054;53.662;10.126;2022-11-20T13:37:39;3.90;99.90
23748;DHT22;12054;53.662;10.126;2022-11-20T13:43:18;3.90;99.90
23748;DHT22;12054;53.662;10.126;2022-11-20T13:46:04;3.90;99.90
23748;DHT22;12054;53.662;10.126;2022-11-20T13:48:33;3.90;99.90
23748;DHT22;12054;53.662;10.126;2022-11-20T13:53:53;3.90;99.90
23748;DHT22;12054;53.662;10.126;2022-11-20T14:01:39;3.90;99.90
23748;DHT22;12054;53.662;10.126;2022-11-20T14:04:09;3.90;99.90
23748;DHT22;12054;53.662;10.126;2022-11-20T14:06:42;3.90;99.90
23748;DHT22;12054;53.662;10.126;2022-11-20T14:09:24;3.90;99.90
23748;DHT22;12054;53.662;10.126;2022-11-20T14:11:50;3.90;99.90
23748;DHT22;12054;53.662;10.126;2022-11-20T14:14:18;3.90;99.90
23748;DHT22;12054;53.662;10.126;2022-11-20T14:16:45;3.90;99.90
23748;DHT22;12054;53.662;10.126;2022-11-20T14:19:27;3.90;99.90
23748;DHT22;12054;53.662;10.126;2022-11-20T14:22:21;3.90;99.90
23748;DHT22;12054;53.662;10.126;2022-11-20T14:24:49;3.90;99.90
23748;DHT22;12054;53.662;10.126;2022-11-20T14:27:19;3.90;99.90
23748;DHT22;12054;53.662;10.126;2022-11-20T14:29:47;3.90;99.90
23748;DHT22;12054;53.662;10.126;2022-11-20T14:32:16;3.90;99.90
23748;DHT22;12054;53.662;10.126;2022-11-20T14:34:44;3.90;99.90
23748;DHT22;12054;53.662;10.126;2022-11-20T14:37:12;3.90;99.90
23748;DHT22;12054;53.662;10.126;2022-11-20T14:39:49;3.90;99.90
23748;DHT22;12054;53.662;10.126;2022-11-20T14:42:20;3.90;99.90
23748;DHT22;12054;53.662;10.126;2022-11-20T14:44:48;3.90;99.90
23748;DHT22;12054;53.662;10.126;2022-11-20T14:47:17;3.90;99.90
23748;DHT22;12054;53.662;10.126;2022-11-20T14:49:44;3.90;99.90
23748;DHT22;12054;53.662;10.126;2022-11-20T14:52:25;3.90;99.90
23748;DHT22;12054;53.662;10.126;2022-11-20T14:57:25;3.90;99.90
23748;DHT22;12054;53.662;10.126;2022-11-20T14:59:51;3.90;99.90
23748;DHT22;12054;53.662;10.126;2022-11-20T15:02:17;3.90;99.90
23748;DHT22;12054;53.662;10.126;2022-11-20T15:04:50;3.90;99.90
23748;DHT22;12054;53.662;10.126;2022-11-20T15:07:30;3.90;99.90
23748;DHT22;12054;53.662;10.126;2022-11-20T15:10:11;3.80;99.90
23748;DHT22;12054;53.662;10.126;2022-11-20T15:12:49;3.80;99.90
23748;DHT22;12054;53.662;10.126;2022-11-20T15:15:19;3.80;99.90
23748;DHT22;12054;53.662;10.126;2022-11-20T15:17:47;3.80;99.90
23748;DHT22;12054;53.662;10.126;2022-11-20T15:20:14;3.90;99.90
23748;DHT22;12054;53.662;10.126;2022-11-20T15:22:41;3.80;99.90
23748;DHT22;12054;53.662;10.126;2022-11-20T15:25:14;3.90;99.90
23748;DHT22;12054;53.662;10.126;2022-11-20T15:27:41;3.80;99.90
23748;DHT22;12054;53.662;10.126;2022-11-20T15:30:18;3.80;99.90
23748;DHT22;12054;53.662;10.126;2022-11-20T15:32:45;3.80;99.90
23748;DHT22;12054;53.662;10.126;2022-11-20T15:35:12;3.80;99.90
23748;DHT22;12054;53.662;10.126;2022-11-20T15:37:38;3.80;99.90
23748;DHT22;12054;53.662;10.126;2022-11-20T15:40:05;3.80;99.90
23748;DHT22;12054;53.662;10.126;2022-11-20T15:42:31;3.80;99.90
23748;DHT22;12054;53.662;10.126;2022-11-20T15:44:57;3.80;99.90
23748;DHT22;12054;53.662;10.126;2022-11-20T15:47:29;3.80;99.90
23748;DHT22;12054;53.662;10.126;2022-11-20T15:49:55;3.80;99.90
23748;DHT22;12054;53.662;10.126;2022-11-20T15:52:21;3.80;99.90
23748;DHT22;12054;53.662;10.126;2022-11-20T15:54:46;3.80;99.90
23748;DHT22;12054;53.662;10.126;2022-11-20T15:57:12;3.80;99.90
23748;DHT22;12054;53.662;10.126;2022-11-20T15:59:38;3.80;99.90
23748;DHT22;12054;53.662;10.126;2022-11-20T16:02:14;3.80;99.90
23748;DHT22;12054;53.662;10.126;2022-11-20T16:04:40;3.80;99.90
23748;DHT22;12054;53.662;10.126;2022-11-20T16:07:06;3.80;99.90
23748;DHT22;12054;53.662;10.126;2022-11-20T16:09:32;3.80;99.90
23748;DHT22;12054;53.662;10.126;2022-11-20T16:11:58;3.80;99.90
23748;DHT22;12054;53.662;10.126;2022-11-20T16:14:25;3.80;99.90
23748;DHT22;12054;53.662;10.126;2022-11-20T16:17:09;3.80;99.90
23748;DHT22;12054;53.662;10.126;2022-11-20T16:19:35;3.80;99.90
23748;DHT22;12054;53.662;10.126;2022-11-20T16:22:01;3.80;99.90
23748;DHT22;12054;53.662;10.126;2022-11-20T16:24:27;3.80;99.90
23748;DHT22;12054;53.662;10.126;2022-11-20T16:26:56;3.70;99.90
23748;DHT22;12054;53.662;10.126;2022-11-20T16:29:22;3.80;99.90
23748;DHT22;12054;53.662;10.126;2022-11-20T16:31:47;3.70;99.90
23748;DHT22;12054;53.662;10.126;2022-11-20T16:34:15;3.70;99.90
23748;DHT22;12054;53.662;10.126;2022-11-20T16:36:42;3.70;99.90
23748;DHT22;12054;53.662;10.126;2022-11-20T16:39:09;3.70;99.90
23748;DHT22;12054;53.662;10.126;2022-11-20T16:41:35;3.70;99.90
23748;DHT22;12054;53.662;10.126;2022-11-20T16:44:09;3.70;99.90
23748;DHT22;12054;53.662;10.126;2022-11-20T16:46:35;3.70;99.90
23748;DHT22;12054;53.662;10.126;2022-11-20T16:49:05;3.70;99.90
23748;DHT22;12054;53.662;10.126;2022-11-20T16:51:34;3.70;99.90
23748;DHT22;12054;53.662;10.126;2022-11-20T16:54:04;3.70;99.90
23748;DHT22;12054;53.662;10.126;2022-11-20T16:56:31;3.70;99.90
23748;DHT22;12054;53.662;10.126;2022-11-20T16:58:57;3.70;99.90
23748;DHT22;12054;53.662;10.126;2022-11-20T17:01:25;3.70;99.90
23748;DHT22;12054;53.662;10.126;2022-11-20T17:03:54;3.70;99.90
23748;DHT22;12054;53.662;10.126;2022-11-20T17:06:25;3.70;99.90